GMMN

Mohammed V International Airport

Code ICAO GMMN
Code IATA CMN
Nom Mohammed V International Airport
Emplacement Casablanca, , MA
Élévation 656 pieds / 199.9 mètres
Latitude 33.36750031
Longitude -7.58997011
METAR GMMN 211100Z 35009KT 330V030 9999 BKN020 22/15 Q1017 NOSIG
Informations extras Afficher cartes et CFS
Afficher NOTAMS
Piste Longueur Largeur Surface Élévation
17L 12205 ft 148 ft ASP 633 ft
17R 12205 ft 148 ft ASP 636 ft
35R 12205 ft 148 ft ASP 656 ft
35L 12205 ft 148 ft ASP 656 ft